Time;durP1;ratioP1;P1;durP2;ratioP2;P2;SDS_P1;SDS_P2;PMS_P1;PMS_P2;Temp;Humidity;BMP_temperature;BMP_pressure;BME280_temperature;BME280_humidity;BME280_pressure;Samples;Min_cycle;Max_cycle;Signal;HPM_P1;HPM_P2
2022/08/14 00:02:06;;;;;;;3.67;3.30;;;21.40;24.80;;;;;;10388154;28;20225;-76
2022/08/14 00:07:12;;;;;;;4.53;3.50;;;21.30;25.00;;;;;;10388402;28;20576;-76
2022/08/14 00:12:16;;;;;;;3.90;3.60;;;21.00;25.20;;;;;;10394121;28;20301;-76
2022/08/14 00:17:26;;;;;;;3.50;3.10;;;20.80;25.10;;;;;;10387760;28;20287;-76
2022/08/14 00:22:31;;;;;;;4.00;3.60;;;20.60;25.70;;;;;;10392841;28;20231;-76
2022/08/14 00:27:54;;;;;;;3.37;3.07;;;20.40;25.60;;;;;;10398482;28;20237;-77
2022/08/14 00:32:58;;;;;;;3.50;3.27;;;20.30;25.50;;;;;;10398733;28;20292;-76
2022/08/14 00:38:03;;;;;;;3.63;3.33;;;20.20;25.40;;;;;;10399807;28;20252;-76
2022/08/14 00:43:10;;;;;;;3.67;3.10;;;20.20;26.00;;;;;;10399676;28;20241;-76
2022/08/14 00:48:17;;;;;;;3.73;3.47;;;20.20;25.40;;;;;;10389645;28;20231;-76
2022/08/14 00:53:41;;;;;;;3.67;3.47;;;20.10;25.50;;;;;;10394799;28;20221;-76
2022/08/14 00:58:46;;;;;;;2.90;2.70;;;20.10;26.10;;;;;;10392773;28;20650;-76
2022/08/14 01:03:52;;;;;;;2.87;2.67;;;20.10;26.00;;;;;;10397933;28;20229;-76
2022/08/14 01:08:57;;;;;;;3.83;3.43;;;20.10;25.50;;;;;;10395105;28;20226;-76
2022/08/14 01:14:02;;;;;;;3.30;3.10;;;20.10;26.10;;;;;;10395580;28;20313;-76
2022/08/14 01:24:50;;;;;;;3.40;3.07;;;19.90;26.00;;;;;;10397331;28;20220;-76
2022/08/14 01:29:55;;;;;;;3.73;3.43;;;19.90;26.50;;;;;;10392125;28;20955;-76
2022/08/14 01:35:07;;;;;;;3.53;3.23;;;19.80;26.40;;;;;;10397079;28;20275;-76
2022/08/14 01:40:32;;;;;;;3.80;3.50;;;19.80;26.30;;;;;;10397328;28;20229;-76
2022/08/14 01:45:44;;;;;;;4.13;3.80;;;19.70;26.60;;;;;;10395592;28;20292;-76
2022/08/14 01:50:51;;;;;;;3.50;3.20;;;19.50;26.50;;;;;;10394612;28;20222;-77
2022/08/14 01:55:58;;;;;;;3.73;3.27;;;19.40;26.60;;;;;;10399036;28;20655;-77
2022/08/14 02:01:03;;;;;;;3.23;2.97;;;19.30;27.20;;;;;;10392170;28;20237;-77
2022/08/14 02:06:11;;;;;;;3.43;3.23;;;19.30;26.90;;;;;;10393122;28;20236;-77
2022/08/14 02:11:36;;;;;;;3.40;3.00;;;19.30;27.10;;;;;;10391179;28;20229;-77
2022/08/14 02:16:42;;;;;;;3.23;2.93;;;19.30;27.40;;;;;;10396517;28;20218;-77
2022/08/14 02:21:47;;;;;;;3.30;3.00;;;19.30;27.20;;;;;;10396550;28;20840;-77
2022/08/14 02:26:55;;;;;;;3.80;3.50;;;19.40;27.30;;;;;;10393641;28;20236;-77
2022/08/14 02:32:19;;;;;;;3.07;2.77;;;19.40;27.50;;;;;;10395501;28;20233;-77
2022/08/14 02:37:42;;;;;;;3.53;3.30;;;19.40;26.90;;;;;;10389692;28;20240;-77
2022/08/14 02:42:52;;;;;;;3.77;3.43;;;19.30;27.10;;;;;;10394513;28;20763;-77
2022/08/14 02:47:59;;;;;;;4.23;3.77;;;19.30;27.60;;;;;;10393124;28;20316;-77
2022/08/14 02:53:04;;;;;;;3.70;3.27;;;19.20;27.20;;;;;;10392926;28;20244;-77
2022/08/14 02:58:12;;;;;;;2.97;2.77;;;19.00;27.20;;;;;;10391214;28;20265;-77
2022/08/14 03:03:32;;;;;;;3.37;3.07;;;19.00;27.80;;;;;;10391059;28;20228;-77
2022/08/14 03:08:42;;;;;;;3.70;3.40;;;19.00;27.50;;;;;;10390654;28;20304;-77
2022/08/14 03:13:51;;;;;;;4.30;3.30;;;19.00;27.90;;;;;;10392435;28;20221;-77
2022/08/14 03:18:57;;;;;;;3.70;3.40;;;19.00;28.20;;;;;;10390993;28;20230;-76
2022/08/14 03:24:08;;;;;;;3.83;3.53;;;18.80;27.80;;;;;;10387693;28;20213;-77
2022/08/14 03:29:27;;;;;;;3.37;3.17;;;18.80;27.70;;;;;;10381803;28;20839;-77
2022/08/14 03:34:31;;;;;;;3.20;2.90;;;18.70;28.00;;;;;;10389840;28;20232;-77
2022/08/14 03:39:50;;;;;;;3.40;3.20;;;18.60;27.70;;;;;;10391183;28;20222;-77
2022/08/14 03:44:55;;;;;;;3.67;3.37;;;18.60;27.90;;;;;;10393012;28;21027;-77
2022/08/14 03:50:18;;;;;;;3.17;2.97;;;18.60;28.20;;;;;;10388084;28;20225;-77
2022/08/14 03:55:33;;;;;;;2.80;2.60;;;18.60;27.90;;;;;;10398254;28;20229;-77
2022/08/14 04:00:38;;;;;;;3.37;3.17;;;18.60;28.00;;;;;;10401771;28;20237;-77
2022/08/14 04:05:46;;;;;;;3.23;3.00;;;18.50;28.40;;;;;;10396550;28;20304;-76
2022/08/14 04:10:51;;;;;;;4.07;3.73;;;18.60;28.00;;;;;;10392106;28;20222;-77
2022/08/14 04:15:56;;;;;;;3.67;3.37;;;18.50;28.00;;;;;;10401447;28;20233;-77
2022/08/14 04:21:07;;;;;;;3.77;3.57;;;18.40;28.20;;;;;;10399102;28;20703;-77
2022/08/14 04:26:13;;;;;;;3.77;3.47;;;18.40;28.20;;;;;;10398702;28;20252;-77
2022/08/14 04:31:38;;;;;;;3.97;3.43;;;18.40;28.60;;;;;;10397359;28;20722;-77
2022/08/14 04:48:12;;;;;;;4.57;4.20;;;18.30;28.40;;;;;;10395923;28;20268;-76
2022/08/14 04:53:42;;;;;;;3.93;3.73;;;18.10;28.90;;;;;;10394396;28;20221;-77
2022/08/14 04:58:46;;;;;;;3.57;3.27;;;18.00;28.80;;;;;;10400204;28;20225;-77
2022/08/14 05:03:51;;;;;;;3.73;3.43;;;18.00;28.80;;;;;;10396849;28;20229;-76
2022/08/14 05:08:56;;;;;;;3.70;3.40;;;18.00;29.30;;;;;;10393857;28;20613;-77
2022/08/14 05:14:03;;;;;;;4.20;3.80;;;18.10;29.10;;;;;;10399041;28;20634;-77
2022/08/14 05:19:27;;;;;;;5.03;3.80;;;18.10;29.30;;;;;;10389342;28;20233;-76
2022/08/14 05:24:34;;;;;;;3.97;3.77;;;18.10;29.60;;;;;;10397599;28;20230;-76
2022/08/14 05:29:43;;;;;;;4.70;3.80;;;18.00;29.30;;;;;;10393834;28;21018;-76
2022/08/14 05:34:48;;;;;;;4.50;4.10;;;17.90;29.50;;;;;;10396731;28;20218;-77
2022/08/14 05:39:51;;;;;;;4.00;3.70;;;17.90;30.20;;;;;;10391967;28;20245;-77
2022/08/14 05:44:55;;;;;;;4.37;4.07;;;18.00;30.00;;;;;;10395731;28;20305;-77
2022/08/14 05:50:00;;;;;;;4.47;4.17;;;18.10;30.50;;;;;;10395102;28;20240;-77
2022/08/14 05:55:04;;;;;;;4.50;4.20;;;18.20;31.20;;;;;;10394500;28;20229;-77
2022/08/14 06:00:09;;;;;;;4.93;4.53;;;18.20;30.70;;;;;;10397584;28;20249;-77
2022/08/14 06:05:16;;;;;;;4.70;4.40;;;18.30;31.10;;;;;;10394680;28;20230;-77
2022/08/14 06:10:25;;;;;;;5.30;4.90;;;18.50;31.40;;;;;;10394327;28;20256;-77
2022/08/14 06:15:30;;;;;;;5.23;4.73;;;18.70;31.30;;;;;;10387834;28;20711;-77
2022/08/14 06:20:35;;;;;;;4.37;4.07;;;18.80;31.70;;;;;;10392986;28;20233;-77
2022/08/14 06:25:43;;;;;;;5.33;4.93;;;19.00;32.30;;;;;;10393901;28;20225;-77
2022/08/14 06:30:55;;;;;;;4.53;4.23;;;19.30;32.40;;;;;;10389154;28;20312;-77
2022/08/14 06:36:01;;;;;;;5.43;4.93;;;19.30;32.00;;;;;;10392422;28;20256;-77
2022/08/14 06:41:05;;;;;;;6.37;5.87;;;19.50;32.70;;;;;;10392996;28;20233;-77
2022/08/14 06:46:13;;;;;;;6.50;5.90;;;19.80;33.00;;;;;;10386795;28;21012;-77
2022/08/14 06:51:36;;;;;;;6.20;5.80;;;19.90;32.30;;;;;;10392134;28;20233;-77
2022/08/14 06:56:46;;;;;;;6.13;5.73;;;20.20;32.90;;;;;;10386967;28;20225;-77
2022/08/14 07:07:23;;;;;;;6.77;6.17;;;20.60;32.00;;;;;;10391331;28;20225;-77
2022/08/14 07:12:30;;;;;;;6.43;6.03;;;20.90;32.70;;;;;;10389795;28;20229;-77
2022/08/14 07:17:53;;;;;;;6.47;5.97;;;21.00;32.30;;;;;;10389474;28;20233;-77
2022/08/14 07:23:01;;;;;;;6.20;5.70;;;21.30;32.40;;;;;;10391391;28;20226;-77
2022/08/14 07:28:12;;;;;;;5.30;4.90;;;21.50;32.60;;;;;;10389731;28;20226;-77
2022/08/14 07:33:24;;;;;;;5.60;5.17;;;21.80;32.30;;;;;;10390710;28;20651;-77
2022/08/14 07:38:34;;;;;;;5.37;4.67;;;22.00;32.20;;;;;;10386987;28;20563;-77
2022/08/14 07:43:40;;;;;;;5.00;4.50;;;22.30;31.80;;;;;;10394422;28;20695;-77
2022/08/14 07:48:43;;;;;;;4.60;4.30;;;22.60;31.30;;;;;;10384478;28;20249;-77
2022/08/14 07:53:51;;;;;;;4.07;3.77;;;22.90;31.00;;;;;;10386240;28;20244;-77
2022/08/14 07:58:59;;;;;;;3.93;3.67;;;23.20;30.60;;;;;;10393406;28;20225;-77
2022/08/14 08:04:04;;;;;;;4.30;4.00;;;23.50;30.50;;;;;;10389619;28;20311;-77
2022/08/14 08:09:26;;;;;;;4.10;3.80;;;23.90;30.20;;;;;;10387354;28;20244;-77
2022/08/14 08:14:35;;;;;;;4.10;3.80;;;24.20;30.00;;;;;;10390426;28;20226;-77
2022/08/14 08:19:58;;;;;;;4.03;3.83;;;24.50;30.00;;;;;;10392720;28;20700;-77
2022/08/14 08:25:03;;;;;;;4.57;4.27;;;24.90;29.70;;;;;;10386745;28;20215;-77
2022/08/14 08:30:16;;;;;;;3.73;3.53;;;25.20;28.90;;;;;;10389728;28;21058;-77
2022/08/14 08:35:22;;;;;;;3.80;3.50;;;25.60;29.00;;;;;;10390843;28;20264;-77
2022/08/14 08:40:29;;;;;;;3.47;3.27;;;25.90;28.80;;;;;;10385419;28;20283;-77
2022/08/14 08:45:36;;;;;;;3.57;3.37;;;26.20;27.70;;;;;;10395575;28;20226;-76
2022/08/14 08:50:40;;;;;;;4.40;3.40;;;26.50;27.80;;;;;;10396160;28;20250;-76
2022/08/14 08:55:45;;;;;;;3.60;3.40;;;26.80;28.20;;;;;;10397596;28;20230;-76
2022/08/14 09:00:51;;;;;;;3.90;3.60;;;27.10;26.80;;;;;;10402355;28;20241;-75
2022/08/14 09:06:00;;;;;;;3.10;2.90;;;27.40;26.80;;;;;;10392695;28;20238;-75
2022/08/14 09:11:08;;;;;;;3.80;3.60;;;27.70;26.30;;;;;;10389194;28;20228;-76
2022/08/14 09:16:24;;;;;;;3.80;3.53;;;28.00;25.70;;;;;;10392695;28;20280;-76
2022/08/14 09:21:28;;;;;;;4.33;3.47;;;28.30;25.90;;;;;;10395243;28;20234;-75
2022/08/14 09:26:35;;;;;;;3.70;3.50;;;28.50;25.70;;;;;;10396063;28;20574;-76
2022/08/14 09:31:44;;;;;;;3.43;3.23;;;28.80;24.60;;;;;;10395726;28;20313;-75
2022/08/14 09:37:11;;;;;;;3.43;3.23;;;29.00;24.10;;;;;;10392022;28;20221;-76
2022/08/14 09:42:37;;;;;;;3.30;3.10;;;29.30;23.70;;;;;;10389746;28;20267;-75
2022/08/14 09:47:55;;;;;;;3.10;2.90;;;29.50;23.90;;;;;;10395776;28;20225;-75
2022/08/14 09:53:02;;;;;;;3.50;3.30;;;29.70;23.60;;;;;;10395055;28;20596;-76
2022/08/14 09:58:11;;;;;;;3.60;3.33;;;29.90;23.00;;;;;;10391953;28;20238;-75
2022/08/14 10:03:31;;;;;;;3.33;3.03;;;30.00;22.40;;;;;;10387370;28;20711;-75
2022/08/14 10:08:44;;;;;;;3.50;3.30;;;30.20;21.30;;;;;;10384568;28;20233;-76
2022/08/14 10:13:57;;;;;;;3.50;3.30;;;30.30;21.50;;;;;;10391289;28;20253;-75
2022/08/14 10:19:05;;;;;;;3.50;3.30;;;30.50;21.60;;;;;;10393235;28;20218;-75
2022/08/14 10:24:11;;;;;;;3.30;3.10;;;30.60;21.50;;;;;;10394184;28;20634;-76
2022/08/14 10:29:31;;;;;;;3.50;3.23;;;30.70;21.70;;;;;;10394166;28;20236;-75
2022/08/14 10:34:35;;;;;;;3.07;2.87;;;30.80;21.50;;;;;;10401739;28;21284;-75
2022/08/14 10:39:44;;;;;;;3.33;3.10;;;31.00;21.60;;;;;;10384944;28;20236;-76
2022/08/14 10:45:20;;;;;;;3.30;3.10;;;31.00;21.10;;;;;;10391983;28;20799;-76
2022/08/14 10:50:31;;;;;;;3.60;3.30;;;31.10;19.80;;;;;;10392150;28;20237;-76
2022/08/14 10:55:38;;;;;;;3.13;2.93;;;31.20;20.20;;;;;;10389755;28;20229;-76
2022/08/14 11:00:58;;;;;;;3.50;3.30;;;31.20;20.30;;;;;;10388560;28;20225;-76
2022/08/14 11:06:17;;;;;;;3.10;2.90;;;31.20;19.90;;;;;;10374596;28;20218;-75
2022/08/14 11:11:21;;;;;;;3.20;3.00;;;31.30;19.50;;;;;;10397912;28;20221;-76
2022/08/14 11:16:28;;;;;;;2.87;2.67;;;31.30;19.90;;;;;;10393699;28;20288;-76
2022/08/14 11:21:33;;;;;;;3.10;2.90;;;31.30;19.20;;;;;;10382855;28;20664;-76
2022/08/14 11:26:43;;;;;;;4.30;3.40;;;31.40;19.30;;;;;;10382815;28;20287;-76
2022/08/14 11:31:48;;;;;;;3.00;2.80;;;31.50;19.40;;;;;;10385914;28;20226;-76
2022/08/14 11:36:56;;;;;;;3.10;2.90;;;31.60;19.50;;;;;;10383207;28;20222;-76
2022/08/14 11:42:22;;;;;;;3.07;2.87;;;31.70;19.20;;;;;;10394150;28;20695;-76
2022/08/14 11:47:47;;;;;;;3.37;3.10;;;31.80;18.80;;;;;;10378877;28;20233;-76
2022/08/14 11:53:20;;;;;;;3.23;3.00;;;31.90;18.40;;;;;;10386350;28;20237;-76
2022/08/14 11:58:26;;;;;;;3.17;2.97;;;32.00;17.80;;;;;;10392136;28;20233;-76
2022/08/14 12:03:39;;;;;;;3.10;2.90;;;32.00;17.70;;;;;;10388539;28;20224;-75
2022/08/14 12:08:56;;;;;;;3.30;3.07;;;32.00;17.10;;;;;;10383905;28;20222;-76
2022/08/14 12:14:08;;;;;;;3.20;3.00;;;32.00;17.40;;;;;;10395780;28;20226;-76
2022/08/14 12:19:44;;;;;;;2.63;2.53;;;32.10;17.20;;;;;;10397146;28;20234;-76
2022/08/14 12:24:53;;;;;;;2.83;2.70;;;32.10;17.20;;;;;;10398986;28;20229;-75
2022/08/14 12:29:56;;;;;;;3.10;2.90;;;32.10;17.50;;;;;;10397492;28;20233;-76
2022/08/14 12:35:01;;;;;;;3.40;3.20;;;32.10;17.70;;;;;;10402360;28;20225;-76
2022/08/14 12:40:12;;;;;;;2.97;2.77;;;32.10;17.10;;;;;;10395505;28;20376;-76
2022/08/14 12:45:19;;;;;;;2.90;2.70;;;32.20;16.70;;;;;;10403243;28;20229;-76
2022/08/14 12:50:35;;;;;;;3.20;3.00;;;32.20;17.30;;;;;;10397547;28;20233;-76
2022/08/14 12:55:40;;;;;;;3.97;3.20;;;32.30;17.10;;;;;;10396700;28;20233;-75
2022/08/14 13:01:03;;;;;;;3.10;2.90;;;32.30;17.10;;;;;;10396389;28;20230;-76
2022/08/14 13:06:23;;;;;;;3.10;2.90;;;32.40;17.10;;;;;;10395052;28;20225;-76
2022/08/14 13:11:35;;;;;;;3.30;3.10;;;32.40;16.70;;;;;;10395279;28;20241;-76
2022/08/14 13:16:43;;;;;;;3.10;2.90;;;32.50;16.20;;;;;;10394164;28;20328;-76
2022/08/14 13:21:55;;;;;;;3.20;3.00;;;32.60;16.50;;;;;;10399090;28;20222;-76
2022/08/14 13:27:11;;;;;;;3.30;3.10;;;32.70;16.00;;;;;;10396515;28;20702;-75
2022/08/14 13:32:15;;;;;;;3.13;2.93;;;32.70;16.80;;;;;;10400114;28;20345;-75
2022/08/14 13:37:19;;;;;;;3.20;3.00;;;32.70;16.40;;;;;;10390968;28;20801;-76
2022/08/14 13:42:27;;;;;;;3.37;3.17;;;32.80;16.00;;;;;;10405912;28;20292;-76
2022/08/14 13:47:34;;;;;;;3.93;3.00;;;32.80;16.00;;;;;;10387672;28;20260;-76
2022/08/14 13:52:42;;;;;;;3.30;3.10;;;32.80;15.90;;;;;;10391121;28;20236;-76
2022/08/14 13:58:02;;;;;;;3.10;3.00;;;32.80;15.20;;;;;;10396451;28;20308;-76
2022/08/14 14:03:09;;;;;;;3.10;3.00;;;32.80;15.70;;;;;;10389290;28;20226;-76
2022/08/14 14:08:15;;;;;;;3.10;3.00;;;32.80;15.50;;;;;;10390223;28;20225;-75
2022/08/14 14:13:39;;;;;;;3.10;2.90;;;32.90;15.20;;;;;;10395535;28;20235;-76
2022/08/14 14:18:49;;;;;;;3.10;3.00;;;32.90;15.90;;;;;;10396077;28;20288;-76
2022/08/14 14:23:56;;;;;;;3.30;3.10;;;32.90;15.10;;;;;;10393851;28;20221;-76
2022/08/14 14:29:01;;;;;;;3.37;3.07;;;33.00;14.90;;;;;;10388586;28;20633;-76
2022/08/14 14:34:04;;;;;;;3.37;3.23;;;33.00;15.30;;;;;;10394780;28;20217;-76
2022/08/14 14:39:17;;;;;;;3.40;3.20;;;33.10;15.00;;;;;;10392904;28;20283;-76
2022/08/14 14:44:25;;;;;;;3.20;3.00;;;33.10;14.50;;;;;;10394379;28;20238;-76
2022/08/14 14:49:29;;;;;;;3.20;3.00;;;33.10;14.60;;;;;;10383290;28;20254;-76
2022/08/14 14:54:54;;;;;;;3.20;3.00;;;33.10;14.70;;;;;;10389410;28;20601;-76
2022/08/14 14:59:58;;;;;;;3.30;3.10;;;33.10;14.30;;;;;;10395421;28;20308;-76
2022/08/14 15:05:02;;;;;;;3.67;3.47;;;33.20;14.80;;;;;;10389111;28;20222;-75
2022/08/14 15:10:09;;;;;;;3.50;3.27;;;33.20;14.60;;;;;;10391713;28;20230;-75
2022/08/14 15:15:32;;;;;;;3.77;3.43;;;33.10;14.00;;;;;;10393435;28;20233;-76
2022/08/14 15:20:40;;;;;;;3.60;3.40;;;33.10;14.70;;;;;;10394202;28;20253;-76
2022/08/14 15:25:46;;;;;;;3.33;3.13;;;33.10;14.80;;;;;;10394756;28;20221;-76
2022/08/14 15:30:55;;;;;;;3.63;3.43;;;33.10;14.70;;;;;;10385887;28;20221;-76
2022/08/14 15:36:02;;;;;;;3.87;3.47;;;33.10;14.80;;;;;;10385176;28;20233;-76
2022/08/14 15:41:07;;;;;;;3.53;3.23;;;33.10;14.90;;;;;;10385781;28;20307;-76
2022/08/14 15:46:10;;;;;;;3.47;3.17;;;33.20;14.50;;;;;;10386399;28;20699;-76
2022/08/14 15:51:34;;;;;;;3.57;3.37;;;33.20;14.80;;;;;;10396705;28;20720;-76
2022/08/14 15:56:45;;;;;;;3.80;3.60;;;33.20;14.90;;;;;;10396706;28;20321;-76
2022/08/14 16:01:51;;;;;;;3.93;3.73;;;33.10;14.60;;;;;;10390305;28;20313;-76
2022/08/14 16:06:57;;;;;;;4.00;3.80;;;33.10;15.00;;;;;;10398314;28;20755;-76
2022/08/14 16:12:02;;;;;;;4.07;3.77;;;33.00;14.90;;;;;;10391691;28;20230;-76
2022/08/14 16:17:06;;;;;;;4.13;3.93;;;32.90;15.00;;;;;;10400084;28;20226;-76
2022/08/14 16:22:12;;;;;;;3.80;3.60;;;32.90;15.00;;;;;;10399953;28;20723;-76
2022/08/14 16:27:38;;;;;;;3.97;3.67;;;32.90;15.20;;;;;;10400838;28;20237;-75
2022/08/14 16:32:47;;;;;;;3.63;3.43;;;32.90;14.80;;;;;;10398439;28;20253;-76
2022/08/14 16:37:59;;;;;;;3.80;3.60;;;32.90;14.90;;;;;;10389163;28;20312;-76
2022/08/14 16:43:25;;;;;;;3.70;3.50;;;32.90;14.60;;;;;;10394350;28;20229;-76
2022/08/14 16:48:29;;;;;;;6.80;6.20;;;33.00;14.90;;;;;;10399744;28;20231;-76
2022/08/14 16:53:53;;;;;;;4.10;3.80;;;33.00;15.10;;;;;;10388662;28;20226;-76
2022/08/14 16:59:10;;;;;;;3.83;3.63;;;33.10;15.70;;;;;;10399457;28;20652;-76
2022/08/14 17:04:16;;;;;;;3.60;3.40;;;33.00;15.00;;;;;;10397710;28;20218;-76
2022/08/14 17:09:30;;;;;;;3.97;3.57;;;33.00;15.00;;;;;;10396367;28;20257;-76
2022/08/14 17:15:02;;;;;;;3.80;3.60;;;33.00;15.00;;;;;;10398656;28;20317;-76
2022/08/14 17:20:15;;;;;;;3.73;3.43;;;33.00;15.10;;;;;;10392041;28;20229;-76
2022/08/14 17:25:38;;;;;;;3.63;3.43;;;33.00;15.20;;;;;;10390613;28;20609;-76
2022/08/14 17:30:55;;;;;;;4.10;3.83;;;33.00;15.30;;;;;;10391256;28;20245;-76
2022/08/14 17:36:10;;;;;;;3.80;3.60;;;33.00;15.10;;;;;;10389241;28;20218;-75
2022/08/14 17:41:25;;;;;;;3.80;3.50;;;33.00;15.10;;;;;;10396347;28;20230;-76
2022/08/14 17:46:41;;;;;;;3.70;3.50;;;32.90;15.20;;;;;;10390424;28;20589;-76
2022/08/14 17:52:05;;;;;;;4.60;4.30;;;32.90;15.20;;;;;;10393820;28;20222;-75
2022/08/14 17:57:21;;;;;;;4.63;3.70;;;32.80;15.30;;;;;;10388486;28;20225;-76
2022/08/14 18:02:28;;;;;;;3.97;3.67;;;32.70;15.60;;;;;;10397941;28;20283;-75
2022/08/14 18:07:35;;;;;;;3.83;3.63;;;32.60;15.70;;;;;;10398244;28;20551;-75
2022/08/14 18:12:59;;;;;;;4.10;3.80;;;32.50;15.90;;;;;;10395865;28;20225;-75
2022/08/14 18:18:05;;;;;;;3.63;3.43;;;32.30;16.20;;;;;;10396214;28;20230;-76
2022/08/14 18:23:11;;;;;;;4.20;3.80;;;32.20;17.10;;;;;;10395614;28;20296;-75
2022/08/14 18:28:17;;;;;;;4.00;3.70;;;32.00;16.40;;;;;;10395056;28;20300;-75
2022/08/14 18:33:51;;;;;;;3.80;3.50;;;31.90;16.60;;;;;;10397280;28;20695;-75
2022/08/14 18:39:21;;;;;;;3.70;3.50;;;31.80;16.80;;;;;;10394039;28;20226;-76
2022/08/14 18:45:02;;;;;;;3.97;3.67;;;31.60;16.70;;;;;;10394370;28;20225;-76
2022/08/14 18:50:24;;;;;;;3.73;3.53;;;31.40;16.80;;;;;;10392029;28;20587;-76
2022/08/14 18:55:57;;;;;;;4.27;3.87;;;31.20;17.30;;;;;;10383964;28;20252;-76
2022/08/14 19:01:22;;;;;;;3.77;3.57;;;30.90;17.60;;;;;;10396511;28;20233;-76
2022/08/14 19:07:13;;;;;;;3.73;3.53;;;30.70;17.80;;;;;;10392559;28;20243;-76
2022/08/14 19:13:01;;;;;;;4.03;3.73;;;30.40;17.60;;;;;;10356355;28;20308;-75
2022/08/14 19:18:20;;;;;;;3.67;3.37;;;30.20;18.00;;;;;;10391378;28;20219;-75
2022/08/14 19:23:35;;;;;;;3.93;3.63;;;30.00;18.20;;;;;;10391229;28;20222;-75
2022/08/14 19:28:47;;;;;;;3.63;3.33;;;29.80;18.70;;;;;;10391520;28;20229;-76
2022/08/14 19:33:52;;;;;;;4.17;3.77;;;29.60;18.60;;;;;;10391287;28;20317;-75
2022/08/14 19:39:00;;;;;;;3.80;3.60;;;29.50;19.00;;;;;;10385059;28;20230;-75
2022/08/14 19:44:09;;;;;;;4.97;4.27;;;29.20;19.20;;;;;;10395801;28;20321;-76
2022/08/14 19:49:13;;;;;;;4.40;4.10;;;29.00;19.10;;;;;;10390504;28;20265;-75
2022/08/14 19:54:31;;;;;;;4.63;4.33;;;28.90;19.20;;;;;;10386481;28;20284;-75
2022/08/14 19:59:36;;;;;;;4.77;4.30;;;28.70;19.80;;;;;;10389657;28;20221;-76
2022/08/14 20:05:00;;;;;;;3.70;3.50;;;28.50;19.40;;;;;;10393267;28;20229;-75
2022/08/14 20:10:10;;;;;;;4.00;3.70;;;28.40;19.60;;;;;;10392240;28;20236;-75
2022/08/14 20:15:35;;;;;;;3.87;3.57;;;28.20;20.20;;;;;;10390278;28;20246;-75
2022/08/14 20:20:49;;;;;;;4.40;4.10;;;28.10;20.10;;;;;;10387366;28;20305;-75
2022/08/14 20:25:57;;;;;;;5.10;4.00;;;28.00;20.10;;;;;;10386517;28;20317;-75
2022/08/14 20:31:16;;;;;;;3.97;3.70;;;27.90;20.10;;;;;;10387506;28;20308;-75
2022/08/14 20:36:27;;;;;;;4.40;4.10;;;27.80;20.60;;;;;;10393484;28;21000;-75
2022/08/14 20:41:32;;;;;;;4.10;3.80;;;27.70;20.40;;;;;;10399581;28;20229;-75
2022/08/14 20:46:37;;;;;;;4.47;4.17;;;27.60;20.70;;;;;;10397108;28;20222;-75
2022/08/14 20:51:50;;;;;;;5.03;4.63;;;27.50;20.90;;;;;;10390301;28;20249;-75
2022/08/14 20:57:08;;;;;;;5.27;4.77;;;27.40;21.10;;;;;;10394982;28;20300;-75
2022/08/14 21:02:33;;;;;;;5.50;4.77;;;27.20;21.90;;;;;;10399304;28;20233;-75
2022/08/14 21:07:52;;;;;;;5.17;4.77;;;27.10;21.40;;;;;;10397279;28;20696;-75
2022/08/14 21:13:13;;;;;;;5.40;4.90;;;27.00;21.40;;;;;;10392508;28;20312;-75
2022/08/14 21:18:41;;;;;;;5.90;5.40;;;26.90;21.70;;;;;;10395688;28;20256;-75
2022/08/14 21:23:56;;;;;;;5.50;5.10;;;26.70;22.50;;;;;;10393621;28;20234;-76
2022/08/14 21:28:59;;;;;;;5.50;5.00;;;26.60;22.80;;;;;;10393829;28;20727;-75
2022/08/14 21:34:05;;;;;;;5.00;4.70;;;26.40;22.50;;;;;;10399741;28;20700;-76
2022/08/14 21:39:28;;;;;;;4.63;4.33;;;26.30;22.80;;;;;;10393678;28;20230;-75
2022/08/14 21:44:32;;;;;;;5.27;4.87;;;26.20;22.60;;;;;;10395194;28;20237;-75
2022/08/14 21:49:47;;;;;;;5.80;5.40;;;26.10;22.80;;;;;;10394993;28;20229;-75
2022/08/14 21:54:52;;;;;;;5.40;5.00;;;26.00;23.40;;;;;;10397236;28;20276;-75
2022/08/14 22:00:02;;;;;;;5.40;4.90;;;25.80;23.30;;;;;;10396073;28;20233;-76
2022/08/14 22:05:28;;;;;;;5.53;5.13;;;25.70;23.60;;;;;;10394697;28;20230;-75
2022/08/14 22:10:33;;;;;;;4.97;4.57;;;25.60;23.90;;;;;;10390463;28;20226;-75
2022/08/14 22:15:37;;;;;;;5.60;5.20;;;25.60;23.50;;;;;;10395341;28;20908;-76
2022/08/14 22:20:47;;;;;;;5.73;5.33;;;25.50;23.80;;;;;;10393710;28;20226;-75
2022/08/14 22:25:58;;;;;;;6.33;5.83;;;25.40;24.30;;;;;;10395326;28;20580;-76
2022/08/14 22:31:09;;;;;;;6.03;5.60;;;25.40;24.10;;;;;;10391147;28;20316;-75
2022/08/14 22:41:49;;;;;;;6.80;6.30;;;25.10;24.80;;;;;;10390770;28;20229;-75
2022/08/14 22:46:59;;;;;;;6.23;5.73;;;25.10;25.50;;;;;;10389017;28;20303;-75
2022/08/14 22:52:07;;;;;;;6.27;5.63;;;24.90;25.00;;;;;;10396005;28;20253;-75
2022/08/14 22:57:31;;;;;;;5.63;5.23;;;24.60;25.80;;;;;;10396107;28;20225;-76
2022/08/14 23:02:46;;;;;;;6.00;5.50;;;24.20;25.10;;;;;;10403045;28;20229;-76
2022/08/14 23:08:00;;;;;;;6.53;6.03;;;24.00;25.50;;;;;;10391031;28;20257;-75
2022/08/14 23:13:23;;;;;;;6.57;6.07;;;23.90;26.30;;;;;;10394025;28;20229;-76
2022/08/14 23:18:28;;;;;;;7.00;6.40;;;23.90;26.20;;;;;;10405530;28;20234;-76
2022/08/14 23:23:32;;;;;;;6.83;6.33;;;23.80;26.20;;;;;;10404576;28;20229;-77
2022/08/14 23:28:44;;;;;;;6.53;6.03;;;23.60;27.00;;;;;;10405283;28;20300;-76
2022/08/14 23:34:00;;;;;;;6.40;5.90;;;23.30;26.90;;;;;;10404993;28;20233;-77
2022/08/14 23:39:05;;;;;;;6.43;5.93;;;23.20;27.10;;;;;;10403328;28;20719;-75
2022/08/14 23:44:23;;;;;;;6.73;6.23;;;23.10;27.40;;;;;;10404497;28;20668;-77
2022/08/14 23:49:27;;;;;;;6.10;5.60;;;23.10;27.40;;;;;;10406526;28;20241;-75
2022/08/14 23:54:52;;;;;;;6.63;6.13;;;23.20;27.50;;;;;;10388407;28;20234;-77
2022/08/14 23:59:57;;;;;;;6.63;6.10;;;23.20;27.50;;;;;;10396449;28;20241;-78
